Time;durP1;ratioP1;P1;durP2;ratioP2;P2;SDS_P1;SDS_P2;PMS_P1;PMS_P2;Temp;Humidity;BMP_temperature;BMP_pressure;BME280_temperature;BME280_humidity;BME280_pressure;Samples;Min_cycle;Max_cycle;Signal;HPM_P1;HPM_P2
2022/06/22 00:01:48;;;;;;;9.63;7.97;;;;;;;18.89;49.95;99948.88;5010963;28;97638;-78
2022/06/22 00:04:32;;;;;;;8.30;7.47;;;;;;;18.95;50.02;99966.19;5004429;28;97189;-78
2022/06/22 00:07:05;;;;;;;8.80;7.95;;;;;;;18.92;49.95;99966.41;5030255;28;97220;-78
2022/06/22 00:09:35;;;;;;;10.02;8.02;;;;;;;18.86;49.76;99970.38;5006086;28;101594;-82
2022/06/22 00:12:01;;;;;;;8.98;8.27;;;;;;;18.85;49.94;99989.97;4992242;28;101069;-78
2022/06/22 00:14:49;;;;;;;9.35;8.35;;;;;;;18.76;50.04;99996.81;5026940;27;96897;-78
2022/06/22 00:17:25;;;;;;;8.77;8.00;;;;;;;18.62;50.09;99970.34;5028730;28;97251;-77
2022/06/22 00:19:58;;;;;;;9.05;8.25;;;;;;;18.58;50.23;99963.53;5029204;28;101683;-78
2022/06/22 00:22:25;;;;;;;9.80;8.00;;;;;;;18.62;50.37;99980.97;4994017;28;101187;-77
2022/06/22 00:24:57;;;;;;;7.88;7.28;;;;;;;18.64;50.63;99994.16;5029618;28;96787;-82
2022/06/22 00:27:35;;;;;;;11.15;7.72;;;;;;;18.65;50.60;100001.19;5013182;28;96946;-81
2022/06/22 00:30:30;;;;;;;8.65;7.95;;;;;;;18.64;50.67;100007.44;4997226;28;101547;-78
2022/06/22 00:33:08;;;;;;;8.77;8.07;;;;;;;18.40;50.58;99972.84;5005552;28;101403;-79
2022/06/22 00:35:47;;;;;;;9.63;8.73;;;;;;;18.54;50.87;100002.78;4989473;28;97146;-78
2022/06/22 00:38:20;;;;;;;10.05;8.40;;;;;;;18.38;51.28;99980.94;5011790;28;98533;-80
2022/06/22 00:40:48;;;;;;;9.25;7.43;;;;;;;18.50;50.91;100000.44;5023744;28;97841;-81
2022/06/22 00:43:15;;;;;;;10.27;8.10;;;;;;;18.48;51.05;99995.25;5028454;28;97489;-80
2022/06/22 00:45:42;;;;;;;8.25;7.65;;;;;;;18.43;51.17;99994.75;5017964;28;96855;-78
2022/06/22 00:48:34;;;;;;;8.80;8.00;;;;;;;18.39;51.05;99993.28;5002705;28;98002;-81
2022/06/22 00:51:15;;;;;;;9.20;8.30;;;;;;;18.23;51.33;99960.78;5013734;28;101291;-80
2022/06/22 00:53:44;;;;;;;9.90;8.88;;;;;;;18.35;51.41;99983.81;4999596;28;97828;-81
2022/06/22 00:56:25;;;;;;;9.32;8.48;;;;;;;18.31;51.69;99975.22;4999274;28;97079;-80
2022/06/22 00:58:59;;;;;;;9.70;8.70;;;;;;;18.29;51.87;99978.94;5011543;28;96896;-80
2022/06/22 01:01:42;;;;;;;8.65;7.82;;;;;;;18.19;52.22;99972.59;5004539;28;101406;-82
2022/06/22 01:04:31;;;;;;;8.88;8.13;;;;;;;18.18;52.10;99970.88;5006836;28;101580;-80
2022/06/22 01:07:02;;;;;;;8.73;7.93;;;;;;;18.13;52.09;99971.22;5027687;28;97045;-78
2022/06/22 01:09:49;;;;;;;8.65;7.85;;;;;;;17.93;52.18;99939.91;5007117;28;96741;-78
2022/06/22 01:12:25;;;;;;;11.55;8.25;;;;;;;17.99;52.71;99952.75;5009128;28;97845;-78
2022/06/22 01:15:16;;;;;;;8.65;7.95;;;;;;;18.01;52.59;99969.44;5008458;28;100940;-80
2022/06/22 01:18:05;;;;;;;8.43;7.70;;;;;;;18.06;52.76;99976.13;5001460;28;97156;-78
2022/06/22 01:21:01;;;;;;;9.48;8.75;;;;;;;18.03;52.78;99968.34;4988373;28;96890;-81
2022/06/22 01:23:38;;;;;;;10.27;9.38;;;;;;;18.00;52.70;99970.38;5028929;27;97596;-79
2022/06/22 01:26:29;;;;;;;8.50;7.70;;;;;;;17.99;52.78;99966.03;5032684;28;101492;-80
2022/06/22 01:29:03;;;;;;;9.90;8.80;;;;;;;17.89;52.99;99952.56;5008345;28;97100;-80
2022/06/22 01:31:29;;;;;;;9.10;8.23;;;;;;;17.75;53.25;99934.06;5022921;28;97593;-81
2022/06/22 01:33:55;;;;;;;9.32;8.52;;;;;;;17.75;53.39;99939.38;5013886;28;98113;-80
2022/06/22 01:36:22;;;;;;;8.85;8.15;;;;;;;17.81;53.67;99949.59;5002291;28;99487;-78
2022/06/22 01:38:48;;;;;;;11.45;8.93;;;;;;;17.75;53.76;99944.69;5020995;28;97421;-79
2022/06/22 01:41:27;;;;;;;9.80;8.82;;;;;;;17.76;53.61;99957.00;5029487;28;97139;-81
2022/06/22 01:44:11;;;;;;;9.23;8.43;;;;;;;17.76;53.73;99960.47;5010526;28;101677;-80
2022/06/22 01:46:39;;;;;;;8.30;7.57;;;;;;;17.58;53.66;99937.88;5021292;28;99581;-83
2022/06/22 01:49:12;;;;;;;9.05;8.32;;;;;;;17.66;53.88;99948.81;5026906;28;97109;-80
2022/06/22 01:51:47;;;;;;;9.40;8.50;;;;;;;17.54;54.16;99933.72;4986994;28;97125;-80
2022/06/22 01:54:23;;;;;;;10.32;8.13;;;;;;;17.64;54.22;99948.06;5027447;28;97963;-80
2022/06/22 01:56:54;;;;;;;8.68;7.97;;;;;;;17.63;54.36;99944.56;4993194;28;100757;-81
2022/06/22 01:59:23;;;;;;;8.90;8.00;;;;;;;17.61;54.31;99953.59;4997697;28;96798;-79
2022/06/22 02:02:00;;;;;;;8.23;7.40;;;;;;;17.59;54.22;99959.00;5030959;28;97191;-79
2022/06/22 02:04:40;;;;;;;9.18;8.25;;;;;;;17.57;54.37;99955.63;5010600;28;100893;-78
2022/06/22 02:07:44;;;;;;;11.50;8.32;;;;;;;17.56;54.22;99955.72;5006508;28;101514;-81
2022/06/22 02:10:28;;;;;;;8.80;8.00;;;;;;;17.51;54.30;99957.81;5025688;28;97045;-81
2022/06/22 02:12:59;;;;;;;9.32;8.52;;;;;;;17.51;54.60;99966.66;5031218;28;97364;-80
2022/06/22 02:15:43;;;;;;;8.68;7.75;;;;;;;17.39;54.70;99946.25;4995193;28;101214;-80
2022/06/22 02:18:19;;;;;;;8.73;8.02;;;;;;;17.49;54.72;99959.75;5013493;28;97537;-81
2022/06/22 02:20:45;;;;;;;8.95;8.05;;;;;;;17.37;54.71;99950.81;5012168;28;97171;-80
2022/06/22 02:23:17;;;;;;;8.88;8.00;;;;;;;17.40;54.66;99955.91;5032146;28;96905;-80
2022/06/22 02:26:04;;;;;;;9.35;8.45;;;;;;;17.43;54.65;99969.81;5008418;28;97861;-80
2022/06/22 02:28:30;;;;;;;8.73;8.02;;;;;;;17.42;54.53;99977.88;5013345;28;101048;-81
2022/06/22 02:30:55;;;;;;;11.90;9.25;;;;;;;17.38;54.74;99963.13;4998527;28;96672;-80
2022/06/22 02:33:21;;;;;;;9.88;9.07;;;;;;;17.35;54.79;99966.84;5014987;28;97105;-79
2022/06/22 02:35:47;;;;;;;9.85;8.85;;;;;;;17.28;55.03;99952.28;4996875;28;101459;-80
2022/06/22 02:38:14;;;;;;;10.15;8.73;;;;;;;17.31;54.81;99962.69;5015097;28;97374;-80
2022/06/22 02:46:16;;;;;;;12.10;9.10;;;;;;;17.28;55.02;99964.69;5007084;28;100834;-78
2022/06/22 02:48:45;;;;;;;10.15;8.32;;;;;;;17.27;55.18;99960.34;5012726;28;101272;-78
2022/06/22 02:51:23;;;;;;;14.73;9.57;;;;;;;17.26;55.12;99963.97;5007387;28;96749;-79
2022/06/22 02:53:49;;;;;;;9.68;8.85;;;;;;;17.25;55.22;99962.25;5006845;28;98276;-80
2022/06/22 02:56:22;;;;;;;11.82;9.50;;;;;;;17.20;55.16;99960.75;5014650;28;97606;-80
2022/06/22 02:58:49;;;;;;;11.25;8.70;;;;;;;17.14;54.99;99952.38;4997953;28;100821;-80
2022/06/22 03:01:20;;;;;;;10.05;9.00;;;;;;;17.07;55.20;99943.97;5012044;28;97632;-80
2022/06/22 03:03:51;;;;;;;9.93;8.82;;;;;;;17.14;55.48;99953.22;5006178;28;97146;-80
2022/06/22 03:06:19;;;;;;;12.40;9.65;;;;;;;17.10;55.23;99942.91;5011750;28;101118;-80
2022/06/22 03:08:45;;;;;;;13.02;9.45;;;;;;;17.13;55.40;99946.22;5003116;28;100889;-80
2022/06/22 03:11:11;;;;;;;10.45;9.50;;;;;;;17.15;55.08;99948.75;5014776;28;96753;-81
2022/06/22 03:13:42;;;;;;;11.77;10.57;;;;;;;17.17;55.20;99957.47;5011980;28;97121;-80
2022/06/22 03:16:18;;;;;;;13.03;10.37;;;;;;;17.14;55.14;99947.06;5011349;28;101272;-80
2022/06/22 03:18:44;;;;;;;13.68;9.35;;;;;;;17.17;55.26;99954.81;5029759;28;97471;-80
2022/06/22 03:21:12;;;;;;;10.65;8.95;;;;;;;17.17;55.68;99957.47;5014341;28;96854;-81
2022/06/22 03:23:49;;;;;;;11.88;9.48;;;;;;;17.17;55.71;99954.81;5010770;28;96863;-80
2022/06/22 03:26:19;;;;;;;9.20;8.38;;;;;;;17.20;55.46;99958.09;5005429;28;100979;-81
2022/06/22 03:29:34;;;;;;;9.88;8.73;;;;;;;17.19;55.64;99951.13;5014093;28;101644;-80
2022/06/22 03:32:07;;;;;;;9.70;8.80;;;;;;;16.99;55.69;99917.13;5019323;28;97070;-80
2022/06/22 03:34:41;;;;;;;10.30;9.20;;;;;;;17.20;55.70;99941.34;5019365;28;96906;-80
2022/06/22 03:37:17;;;;;;;15.82;9.43;;;;;;;17.30;55.60;99955.69;5007465;28;97968;-78
2022/06/22 03:39:47;;;;;;;12.15;10.13;;;;;;;17.33;55.51;99957.28;5017700;28;97658;-80
2022/06/22 03:42:25;;;;;;;11.05;9.90;;;;;;;17.29;55.53;99946.03;4996692;28;96818;-79
2022/06/22 03:45:03;;;;;;;11.80;8.93;;;;;;;17.49;55.38;99973.88;5012777;28;96862;-79
2022/06/22 03:47:37;;;;;;;11.68;9.63;;;;;;;17.44;55.51;99957.41;5004513;28;101187;-79
2022/06/22 03:50:18;;;;;;;9.43;8.60;;;;;;;17.61;55.27;99980.97;5018284;28;98031;-79
2022/06/22 03:53:02;;;;;;;9.63;8.73;;;;;;;17.60;55.17;99973.97;5027163;28;97202;-79
2022/06/22 03:55:31;;;;;;;10.50;9.50;;;;;;;17.67;55.38;99978.88;5027026;28;97224;-79
2022/06/22 03:57:59;;;;;;;11.20;9.95;;;;;;;17.64;55.05;99969.31;5028883;28;97842;-79
2022/06/22 04:00:25;;;;;;;13.23;10.07;;;;;;;17.52;55.50;99947.13;5012188;28;101338;-79
2022/06/22 04:02:51;;;;;;;11.40;10.30;;;;;;;17.61;55.35;99966.88;4992415;28;98745;-80
2022/06/22 04:05:19;;;;;;;10.32;9.40;;;;;;;17.61;55.22;99969.50;5011189;28;98399;-79
2022/06/22 04:07:45;;;;;;;10.52;9.50;;;;;;;17.65;55.46;99963.03;5008989;28;97980;-79
2022/06/22 04:10:37;;;;;;;10.82;9.73;;;;;;;17.76;55.19;99965.78;5006068;28;98408;-79
2022/06/22 04:13:07;;;;;;;11.23;10.07;;;;;;;17.85;55.27;99967.84;5009412;28;97212;-80
2022/06/22 04:15:35;;;;;;;11.57;10.02;;;;;;;17.72;54.96;99948.41;5010362;28;96953;-80
2022/06/22 04:18:15;;;;;;;11.05;10.05;;;;;;;17.86;54.92;99974.03;5008988;28;97472;-79
2022/06/22 04:20:51;;;;;;;10.15;9.20;;;;;;;17.91;54.49;99971.03;5008929;28;101372;-79
2022/06/22 04:23:31;;;;;;;11.48;9.82;;;;;;;17.98;54.60;99974.97;5028926;28;97143;-79
2022/06/22 04:26:03;;;;;;;10.38;9.48;;;;;;;18.06;54.59;99981.44;5030118;28;96745;-79
2022/06/22 04:28:32;;;;;;;10.52;9.73;;;;;;;18.11;54.44;99986.41;4996253;28;100946;-79
2022/06/22 04:30:58;;;;;;;11.02;9.90;;;;;;;18.24;53.98;99999.69;5012642;28;97422;-79
2022/06/22 04:33:43;;;;;;;10.95;9.27;;;;;;;18.15;53.90;99961.34;5008881;28;97438;-79
2022/06/22 04:36:13;;;;;;;10.82;9.80;;;;;;;18.46;53.33;99997.16;5010336;28;96768;-79
2022/06/22 04:38:58;;;;;;;11.60;10.10;;;;;;;18.54;52.89;99991.31;5000088;28;100917;-80
2022/06/22 04:41:33;;;;;;;12.10;10.65;;;;;;;18.61;52.79;99979.25;5004240;28;101416;-80
2022/06/22 04:44:20;;;;;;;11.93;10.75;;;;;;;18.68;52.49;99977.03;5026056;28;97863;-79
2022/06/22 04:46:52;;;;;;;14.07;10.60;;;;;;;18.73;52.45;99961.56;5011135;28;97224;-80
2022/06/22 04:49:25;;;;;;;11.35;10.35;;;;;;;18.82;51.93;99950.31;4999724;28;102056;-79
2022/06/22 04:51:54;;;;;;;14.48;11.18;;;;;;;19.05;51.85;99972.50;4994797;28;101897;-80
2022/06/22 04:54:26;;;;;;;12.00;10.00;;;;;;;19.08;51.63;99960.78;5010361;28;96902;-79
2022/06/22 04:56:54;;;;;;;10.85;9.88;;;;;;;19.23;51.58;99976.47;5005794;28;96790;-79
2022/06/22 04:59:20;;;;;;;12.13;10.60;;;;;;;19.39;51.45;99988.59;4996294;28;101316;-79
2022/06/22 05:01:55;;;;;;;11.52;10.63;;;;;;;19.45;50.80;99962.34;5004842;28;101066;-78
2022/06/22 05:04:49;;;;;;;10.52;9.70;;;;;;;19.73;50.55;99986.06;4994566;28;97127;-79
2022/06/22 05:07:28;;;;;;;10.65;9.75;;;;;;;19.80;50.23;99976.59;5002349;28;97773;-79
2022/06/22 05:10:49;;;;;;;11.57;10.38;;;;;;;19.97;50.19;99984.13;5014040;28;101348;-79
2022/06/22 05:13:27;;;;;;;12.43;10.55;;;;;;;20.14;49.70;99993.47;4996654;28;98419;-78
2022/06/22 05:15:55;;;;;;;12.48;11.25;;;;;;;20.06;49.15;99959.41;4995704;28;96667;-78
2022/06/22 05:18:24;;;;;;;12.55;11.27;;;;;;;20.37;49.11;99991.63;4997378;28;97016;-75
2022/06/22 05:21:01;;;;;;;12.88;11.38;;;;;;;20.51;48.97;100009.19;4992400;28;100887;-79
2022/06/22 05:23:29;;;;;;;10.98;9.95;;;;;;;20.61;49.21;99996.00;5033257;28;97359;-78
2022/06/22 05:25:58;;;;;;;12.48;11.27;;;;;;;20.98;48.47;100009.84;5016805;28;97924;-78
2022/06/22 05:28:36;;;;;;;11.25;10.25;;;;;;;21.07;47.55;100006.41;5025251;28;97224;-78
2022/06/22 05:31:05;;;;;;;14.07;10.35;;;;;;;21.34;47.36;100018.44;5008733;28;97531;-78
2022/06/22 05:33:34;;;;;;;13.82;9.93;;;;;;;21.38;46.87;100018.09;5002450;28;97370;-76
2022/06/22 05:36:08;;;;;;;10.80;9.90;;;;;;;21.61;46.64;100024.16;5014438;28;96951;-78
2022/06/22 05:38:36;;;;;;;12.77;10.23;;;;;;;21.68;45.99;99985.25;5007939;28;97168;-78
2022/06/22 05:41:04;;;;;;;10.38;9.45;;;;;;;21.96;45.98;100008.72;5026166;28;98555;-78
2022/06/22 05:43:32;;;;;;;11.85;9.88;;;;;;;22.21;45.10;100007.50;5001768;28;102131;-79
2022/06/22 05:45:58;;;;;;;11.07;9.93;;;;;;;22.54;44.40;100015.22;5028997;28;96938;-79
2022/06/22 05:48:25;;;;;;;9.95;9.05;;;;;;;22.71;44.02;100002.16;5012853;28;97469;-79
2022/06/22 05:50:59;;;;;;;10.60;9.23;;;;;;;22.99;43.69;99990.66;5026106;28;97509;-81
2022/06/22 05:53:39;;;;;;;10.45;9.48;;;;;;;23.34;42.39;99999.13;5014435;28;100929;-85
2022/06/22 05:56:29;;;;;;;11.13;9.98;;;;;;;23.61;41.93;100001.06;5012237;28;96884;-88
2022/06/22 05:59:12;;;;;;;10.82;9.73;;;;;;;23.97;41.57;100004.81;4999325;28;97561;-81
2022/06/22 06:02:12;;;;;;;11.18;10.02;;;;;;;24.28;41.18;99999.19;5017044;28;98768;-81
2022/06/22 06:04:48;;;;;;;11.38;10.07;;;;;;;24.57;40.30;99981.13;5021378;28;98081;-81
2022/06/22 06:07:38;;;;;;;10.30;9.25;;;;;;;24.88;39.21;99985.31;5018564;28;97117;-80
2022/06/22 06:10:11;;;;;;;9.93;9.13;;;;;;;25.18;38.95;100001.06;5026254;28;97152;-81
2022/06/22 06:12:39;;;;;;;10.82;9.70;;;;;;;25.46;38.06;99995.63;5025623;28;98051;-81
2022/06/22 06:15:06;;;;;;;9.75;8.90;;;;;;;25.68;35.70;99994.25;5030474;28;97947;-82
2022/06/22 06:17:58;;;;;;;9.15;8.35;;;;;;;25.68;36.28;99994.25;5002081;28;96689;-82
2022/06/22 06:20:30;;;;;;;9.05;8.32;;;;;;;25.67;34.29;99992.56;5027683;28;97532;-82
2022/06/22 06:23:01;;;;;;;13.57;9.85;;;;;;;25.73;34.45;100002.69;5025920;28;98164;-82
2022/06/22 06:28:22;;;;;;;10.25;9.35;;;;;;;26.20;34.61;99992.38;5018346;28;97409;-81
2022/06/22 06:30:50;;;;;;;9.68;8.93;;;;;;;26.64;33.69;99997.63;5010737;28;96993;-81
2022/06/22 06:33:31;;;;;;;9.90;9.18;;;;;;;27.06;33.37;99994.03;5029592;28;97705;-82
2022/06/22 06:36:18;;;;;;;10.18;9.38;;;;;;;27.45;32.30;99976.38;5023251;28;97905;-82
2022/06/22 06:38:51;;;;;;;9.93;8.98;;;;;;;27.71;32.33;99979.72;5012598;28;97422;-82
2022/06/22 06:41:24;;;;;;;10.15;9.20;;;;;;;28.18;32.23;99996.97;5029117;28;98242;-82
2022/06/22 06:43:57;;;;;;;10.52;9.40;;;;;;;28.11;32.40;99971.72;5010295;28;97698;-81
2022/06/22 06:46:30;;;;;;;10.50;9.70;;;;;;;28.47;31.86;99982.06;4993170;28;102441;-82
2022/06/22 06:49:11;;;;;;;8.68;7.90;;;;;;;28.55;29.65;99985.56;5020038;28;97002;-81
2022/06/22 06:51:38;;;;;;;11.32;9.48;;;;;;;28.35;29.88;99985.09;5010620;28;96829;-80
2022/06/22 06:54:16;;;;;;;9.20;8.50;;;;;;;28.65;30.08;99979.91;5013144;28;98965;-82
2022/06/22 06:56:57;;;;;;;9.90;8.98;;;;;;;29.04;28.76;99979.88;4997438;28;99597;-81
2022/06/22 06:59:26;;;;;;;9.20;8.43;;;;;;;28.90;26.95;99980.63;5020175;28;98253;-82
2022/06/22 07:01:52;;;;;;;9.57;8.88;;;;;;;29.14;27.68;99984.19;4999298;28;96981;-81
2022/06/22 07:04:33;;;;;;;9.32;8.40;;;;;;;29.30;27.24;99966.00;4996745;28;101228;-82
2022/06/22 07:07:38;;;;;;;9.20;8.52;;;;;;;29.98;26.31;99979.53;5006405;28;97302;-82
2022/06/22 07:10:11;;;;;;;8.82;8.32;;;;;;;30.40;25.22;99978.06;5007031;28;97360;-83
2022/06/22 07:12:57;;;;;;;9.35;8.55;;;;;;;29.97;25.55;99970.59;5025903;28;96798;-84
2022/06/22 07:15:25;;;;;;;9.77;8.98;;;;;;;30.09;26.37;99965.56;5013164;28;101346;-80
2022/06/22 07:17:53;;;;;;;9.65;8.82;;;;;;;30.57;25.71;99963.25;5009095;28;101397;-81
2022/06/22 07:20:23;;;;;;;9.50;8.68;;;;;;;30.81;25.33;99978.38;5010821;28;98208;-80
2022/06/22 07:22:53;;;;;;;9.00;8.35;;;;;;;30.88;23.01;99964.88;5009092;28;97638;-83
2022/06/22 07:25:23;;;;;;;9.32;8.63;;;;;;;30.41;23.79;99971.63;5010234;28;101229;-80
2022/06/22 07:27:55;;;;;;;9.90;9.05;;;;;;;29.85;24.25;99973.97;5007419;28;101282;-81
2022/06/22 07:30:36;;;;;;;8.70;8.18;;;;;;;29.37;22.93;99984.19;5005624;28;96707;-79
2022/06/22 07:33:16;;;;;;;9.45;8.85;;;;;;;28.69;23.54;99988.53;5031690;27;97074;-82
2022/06/22 07:35:57;;;;;;;8.65;8.05;;;;;;;28.36;25.29;99997.59;5008248;28;100988;-80
2022/06/22 07:38:43;;;;;;;8.80;8.20;;;;;;;28.32;24.53;99985.47;5026438;28;100879;-80
2022/06/22 07:41:20;;;;;;;8.25;7.65;;;;;;;28.75;22.92;99983.25;5027341;28;97127;-80
2022/06/22 07:43:52;;;;;;;9.10;8.50;;;;;;;28.97;21.37;99986.97;5007721;28;96886;-80
2022/06/22 07:46:28;;;;;;;9.27;8.68;;;;;;;28.89;23.85;99987.06;5017765;27;99253;-79
2022/06/22 07:48:59;;;;;;;9.10;8.50;;;;;;;29.59;23.49;99988.72;5009789;28;102230;-79
2022/06/22 07:51:27;;;;;;;9.00;8.40;;;;;;;30.18;21.41;99975.25;4999853;28;96829;-78
2022/06/22 07:54:05;;;;;;;8.52;8.00;;;;;;;30.92;22.03;99973.44;4992103;28;96964;-79
2022/06/22 07:57:02;;;;;;;8.82;8.07;;;;;;;31.76;21.21;99968.13;4992661;28;101142;-80
2022/06/22 07:59:33;;;;;;;9.10;8.48;;;;;;;32.32;21.43;99970.78;5015036;28;97828;-82
2022/06/22 08:02:03;;;;;;;11.38;8.60;;;;;;;29.72;21.92;99980.81;5024121;28;97334;-82
2022/06/22 08:04:33;;;;;;;9.05;8.45;;;;;;;29.86;22.83;99975.63;5007358;28;97411;-82
2022/06/22 08:07:16;;;;;;;8.82;8.25;;;;;;;30.53;22.59;99978.22;5008482;28;101495;-82
2022/06/22 08:09:54;;;;;;;9.05;8.35;;;;;;;31.17;22.17;99976.63;5024270;28;98643;-81
2022/06/22 08:12:24;;;;;;;8.27;7.68;;;;;;;31.76;21.72;99952.69;5023705;28;98068;-82
2022/06/22 08:14:53;;;;;;;8.93;8.23;;;;;;;32.36;21.06;99969.34;5004860;28;98024;-81
2022/06/22 08:18:03;;;;;;;8.60;8.10;;;;;;;32.23;19.36;99953.84;5007576;28;97726;-80
2022/06/22 08:20:35;;;;;;;9.77;8.75;;;;;;;32.52;19.25;99942.88;5006089;28;101207;-80
2022/06/22 08:23:04;;;;;;;8.32;7.72;;;;;;;32.21;20.52;99936.91;5018081;28;97949;-80
2022/06/22 08:25:31;;;;;;;8.50;8.02;;;;;;;32.40;21.39;99945.31;5027366;28;97314;-80
2022/06/22 08:27:57;;;;;;;8.75;8.18;;;;;;;32.66;21.07;99942.72;5028585;28;98280;-81
2022/06/22 08:30:22;;;;;;;9.07;8.27;;;;;;;33.01;20.50;99939.88;4994032;28;100998;-80
2022/06/22 08:33:08;;;;;;;8.70;8.20;;;;;;;33.29;20.57;99949.72;5000977;28;97071;-80
2022/06/22 08:35:42;;;;;;;8.98;8.38;;;;;;;33.77;20.78;99952.22;5010565;28;97034;-81
2022/06/22 08:38:12;;;;;;;8.57;8.07;;;;;;;34.06;20.45;99941.91;5032848;28;97710;-81
2022/06/22 08:40:47;;;;;;;9.02;8.27;;;;;;;33.78;20.03;99949.28;5030784;28;97688;-81
2022/06/22 08:43:18;;;;;;;8.75;8.23;;;;;;;33.98;20.47;99946.50;5032128;28;96937;-80
2022/06/22 08:46:07;;;;;;;8.88;8.27;;;;;;;34.14;19.78;99952.56;5032947;28;97192;-80
2022/06/22 08:48:42;;;;;;;8.63;8.13;;;;;;;34.33;20.43;99951.66;5010448;28;101577;-80
2022/06/22 08:51:41;;;;;;;8.55;8.05;;;;;;;34.18;20.40;99951.06;5032445;28;97379;-80
2022/06/22 08:54:19;;;;;;;8.80;8.20;;;;;;;34.23;20.84;99934.91;5026006;28;98015;-80
2022/06/22 08:57:21;;;;;;;8.18;7.57;;;;;;;34.53;20.88;99945.25;5029684;28;97179;-81
2022/06/22 08:59:58;;;;;;;8.25;7.75;;;;;;;34.83;20.39;99940.09;4983210;28;100445;-81
2022/06/22 09:03:04;;;;;;;8.88;8.27;;;;;;;34.85;20.35;99932.50;5021194;28;97319;-81
2022/06/22 09:05:41;;;;;;;9.52;8.63;;;;;;;34.52;20.50;99932.69;5027704;28;96761;-81
2022/06/22 09:08:37;;;;;;;8.73;8.23;;;;;;;33.83;20.89;99924.13;5023952;28;97188;-80
2022/06/22 09:11:09;;;;;;;8.50;7.90;;;;;;;33.76;21.38;99928.78;5021753;28;97954;-81
2022/06/22 09:13:53;;;;;;;8.65;8.05;;;;;;;34.01;21.26;99907.97;5014827;28;101653;-80
2022/06/22 09:16:25;;;;;;;8.20;7.40;;;;;;;33.98;21.52;99918.47;5014034;28;97297;-81
2022/06/22 09:19:28;;;;;;;9.13;8.27;;;;;;;33.65;20.51;99918.53;5028692;28;97334;-81
2022/06/22 09:22:15;;;;;;;8.85;8.27;;;;;;;33.52;21.69;99927.56;5032971;27;98431;-82
2022/06/22 09:25:05;;;;;;;8.60;8.02;;;;;;;33.58;21.86;99926.72;5030375;28;101184;-81
2022/06/22 09:27:40;;;;;;;8.43;7.75;;;;;;;33.56;22.17;99920.66;5031822;28;97357;-81
2022/06/22 09:30:31;;;;;;;11.05;8.18;;;;;;;33.28;21.86;99912.69;5012297;28;96959;-81
2022/06/22 09:33:02;;;;;;;8.88;8.18;;;;;;;33.14;21.84;99917.31;5013244;28;101542;-82
2022/06/22 09:35:49;;;;;;;8.52;7.50;;;;;;;33.04;22.44;99917.72;5013614;28;100865;-81
2022/06/22 09:38:24;;;;;;;9.23;8.50;;;;;;;33.01;22.69;99920.84;5013241;28;96802;-81
2022/06/22 09:41:17;;;;;;;9.27;8.50;;;;;;;32.93;22.43;99918.31;5014780;28;96962;-81
2022/06/22 09:43:53;;;;;;;8.68;7.72;;;;;;;32.64;22.33;99914.94;5028920;27;97898;-84
2022/06/22 09:46:52;;;;;;;8.95;8.23;;;;;;;31.96;22.36;99898.56;5008049;28;101133;-78
2022/06/22 09:49:36;;;;;;;8.52;8.02;;;;;;;31.82;23.28;99907.66;5019142;28;97655;-79
2022/06/22 09:52:26;;;;;;;9.18;8.48;;;;;;;31.69;23.48;99915.72;5012984;28;97596;-78
2022/06/22 09:58:29;;;;;;;8.77;8.27;;;;;;;31.27;23.14;99922.91;5008047;28;101400;-77
2022/06/22 10:01:06;;;;;;;8.98;8.38;;;;;;;31.07;23.92;99912.75;5008985;28;97621;-80
2022/06/22 10:03:53;;;;;;;9.10;8.60;;;;;;;30.94;24.18;99920.75;5028340;28;97347;-79
2022/06/22 10:07:04;;;;;;;9.23;8.30;;;;;;;30.74;24.42;99923.22;5027122;28;101807;-79
2022/06/22 10:10:07;;;;;;;9.00;8.40;;;;;;;30.51;25.00;99922.56;4933452;28;100975;-79
2022/06/22 10:12:43;;;;;;;9.18;8.32;;;;;;;30.37;25.13;99926.97;4927722;28;97440;-78
2022/06/22 10:15:27;;;;;;;8.70;8.02;;;;;;;30.30;25.22;99918.78;5011525;28;97336;-78
2022/06/22 10:18:04;;;;;;;8.55;8.05;;;;;;;30.03;24.95;99916.75;5012737;28;101528;-79
2022/06/22 10:20:45;;;;;;;8.73;8.02;;;;;;;29.80;25.28;99916.88;5013624;28;100828;-77
2022/06/22 10:23:22;;;;;;;8.70;8.10;;;;;;;29.52;26.13;99918.28;5022296;28;97235;-79
2022/06/22 10:26:00;;;;;;;8.40;7.80;;;;;;;29.33;25.51;99903.47;5027471;28;97089;-77
2022/06/22 10:28:35;;;;;;;8.35;7.65;;;;;;;29.41;26.05;99920.59;5028162;28;98414;-78
2022/06/22 10:31:32;;;;;;;9.23;8.10;;;;;;;29.24;26.33;99915.38;5010236;28;98531;-78
2022/06/22 10:34:09;;;;;;;8.48;7.65;;;;;;;29.17;26.59;99908.16;5027419;28;97178;-81
2022/06/22 10:36:44;;;;;;;9.00;8.20;;;;;;;28.98;27.17;99904.09;5027691;28;97189;-78
2022/06/22 10:39:43;;;;;;;8.52;7.90;;;;;;;28.81;27.09;99909.63;5030831;27;97955;-75
2022/06/22 10:45:25;;;;;;;9.90;9.23;;;;;;;28.63;27.33;99882.09;5040403;27;97231;-75
2022/06/22 10:48:24;;;;;;;8.52;7.97;;;;;;;28.35;27.80;99884.41;5009704;28;97244;-75
2022/06/22 10:51:00;;;;;;;9.30;8.70;;;;;;;28.34;27.81;99880.88;4992904;28;101487;-75
2022/06/22 10:53:44;;;;;;;9.95;9.15;;;;;;;28.25;27.62;99886.53;5023248;28;97934;-74
2022/06/22 10:56:28;;;;;;;9.25;8.57;;;;;;;28.11;27.66;99880.84;5022005;28;96979;-77
2022/06/22 10:59:32;;;;;;;9.75;8.95;;;;;;;27.75;28.31;99891.22;5017082;28;98464;-77
2022/06/22 11:02:35;;;;;;;9.85;9.02;;;;;;;27.69;28.30;99882.00;5010405;28;101475;-74
2022/06/22 11:05:28;;;;;;;9.25;8.55;;;;;;;27.61;28.57;99859.63;5023988;28;97890;-74
2022/06/22 11:07:56;;;;;;;8.80;8.00;;;;;;;27.66;28.55;99870.69;5024433;28;97311;-73
2022/06/22 11:10:45;;;;;;;6.05;5.55;;;;;;;27.73;28.84;99875.25;5012474;28;97487;-74
2022/06/22 11:13:16;;;;;;;8.00;7.40;;;;;;;27.50;28.02;99864.34;4991831;28;100854;-74
2022/06/22 11:15:52;;;;;;;7.88;7.28;;;;;;;27.42;28.51;99874.31;5004225;28;101715;-74
2022/06/22 11:18:50;;;;;;;7.50;7.03;;;;;;;27.19;29.18;99863.41;5025118;28;97465;-75
2022/06/22 11:22:04;;;;;;;8.13;7.55;;;;;;;27.16;29.06;99878.06;5014491;28;97524;-75
2022/06/22 11:25:02;;;;;;;8.10;7.50;;;;;;;27.15;29.21;99883.59;4912758;28;101382;-75
2022/06/22 11:30:56;;;;;;;7.80;7.20;;;;;;;26.60;29.91;99894.00;5035231;27;97443;-77
2022/06/22 11:33:48;;;;;;;8.35;6.90;;;;;;;26.51;30.39;99896.88;5012190;28;97286;-78
2022/06/22 11:36:23;;;;;;;8.05;7.30;;;;;;;26.45;30.17;99903.72;5022533;27;101035;-78
2022/06/22 11:39:07;;;;;;;7.88;7.07;;;;;;;26.25;30.31;99907.69;5014766;28;97605;-76
2022/06/22 11:42:10;;;;;;;7.25;6.70;;;;;;;26.18;30.16;99915.59;5015632;28;97768;-74
2022/06/22 11:48:08;;;;;;;7.97;7.22;;;;;;;26.28;30.34;99926.19;5021115;28;101738;-74
2022/06/22 11:50:52;;;;;;;7.60;7.00;;;;;;;26.25;29.77;99916.59;5027719;28;98022;-74
2022/06/22 11:53:43;;;;;;;7.95;7.20;;;;;;;26.17;30.39;99909.34;5026624;28;97197;-75
2022/06/22 11:56:38;;;;;;;7.05;6.63;;;;;;;26.14;30.07;99906.13;5018639;28;97392;-74
2022/06/22 11:59:41;;;;;;;7.53;7.03;;;;;;;26.18;29.96;99927.19;5020571;28;98132;-75
2022/06/22 12:02:22;;;;;;;7.78;7.13;;;;;;;26.10;29.78;99920.94;5022053;28;101512;-75
2022/06/22 12:04:55;;;;;;;8.00;7.30;;;;;;;26.05;29.00;99915.19;5003657;28;96838;-76
2022/06/22 12:07:39;;;;;;;8.00;6.68;;;;;;;26.03;29.30;99930.63;5028285;27;97185;-75
2022/06/22 12:10:31;;;;;;;8.70;7.40;;;;;;;25.94;29.59;99908.22;5005643;28;101759;-75
2022/06/22 12:13:12;;;;;;;7.63;7.13;;;;;;;25.96;30.00;99923.22;4986648;28;98104;-76
2022/06/22 12:15:43;;;;;;;7.78;7.28;;;;;;;26.02;30.21;99907.44;5001887;28;97267;-75
2022/06/22 12:18:28;;;;;;;7.88;7.28;;;;;;;26.04;29.86;99908.13;5008831;28;97396;-77
2022/06/22 12:21:02;;;;;;;7.43;7.03;;;;;;;26.08;29.90;99914.84;5002239;28;100961;-75
2022/06/22 12:23:42;;;;;;;7.38;6.88;;;;;;;26.20;29.75;99908.16;5009472;28;97562;-75
2022/06/22 12:26:26;;;;;;;7.22;6.63;;;;;;;26.15;30.28;99878.22;5023226;28;97927;-75
2022/06/22 12:29:16;;;;;;;7.13;6.72;;;;;;;26.26;29.65;99893.22;5003180;28;97454;-75
2022/06/22 12:31:47;;;;;;;7.10;6.60;;;;;;;26.05;29.44;99883.75;5017591;28;101445;-75
2022/06/22 12:34:29;;;;;;;;;;;;;;;25.89;30.06;99881.84;5009750;28;97348;-75
2022/06/22 12:37:04;;;;;;;7.40;6.90;;;;;;;26.00;30.06;99878.00;4993300;28;97209;-76
2022/06/22 12:39:37;;;;;;;7.63;6.93;;;;;;;26.03;30.42;99877.69;5002442;28;97670;-75